Time;durP1;ratioP1;P1;durP2;ratioP2;P2;SDS_P1;SDS_P2;PMS_P1;PMS_P2;Temp;Humidity;BMP_temperature;BMP_pressure;BME280_temperature;BME280_humidity;BME280_pressure;Samples;Min_cycle;Max_cycle;Signal;HPM_P1;HPM_P2
2022/05/06 00:01:03;;;;;;;26.35;14.23;;;10.50;96.00;;;;;;5087573;28;20040;-47
2022/05/06 00:03:29;;;;;;;18.23;13.40;;;10.50;96.30;;;;;;5068810;28;20040;-47
2022/05/06 00:05:55;;;;;;;18.35;12.70;;;10.40;96.80;;;;;;5068648;28;20036;-47
2022/05/06 00:08:21;;;;;;;25.50;14.93;;;10.40;96.70;;;;;;5068602;28;20549;-47
2022/05/06 00:10:46;;;;;;;19.17;14.93;;;10.40;96.80;;;;;;5069135;28;20040;-47
2022/05/06 00:13:12;;;;;;;19.53;13.73;;;10.40;96.50;;;;;;5075806;28;20283;-48
2022/05/06 00:15:37;;;;;;;19.83;13.60;;;10.30;96.80;;;;;;5086954;28;20301;-47
2022/05/06 00:18:03;;;;;;;18.92;14.45;;;10.20;97.00;;;;;;5077320;28;20040;-48
2022/05/06 00:20:29;;;;;;;20.02;13.93;;;10.20;97.40;;;;;;5072859;28;20036;-47
2022/05/06 00:22:57;;;;;;;18.77;13.80;;;10.20;97.70;;;;;;5085770;28;20036;-47
2022/05/06 00:25:23;;;;;;;25.50;14.32;;;10.10;98.00;;;;;;5092190;28;20497;-47
2022/05/06 00:27:49;;;;;;;25.13;15.45;;;10.10;98.10;;;;;;5091618;28;20134;-47
2022/05/06 00:30:15;;;;;;;21.40;14.40;;;10.10;98.50;;;;;;5093022;28;20132;-48
2022/05/06 00:32:40;;;;;;;22.63;15.13;;;10.10;98.50;;;;;;5077551;28;20141;-47
2022/05/06 00:35:06;;;;;;;21.63;15.03;;;10.10;98.40;;;;;;5071602;28;20071;-47
2022/05/06 00:37:32;;;;;;;27.70;16.80;;;10.10;98.50;;;;;;5073643;28;20040;-47
2022/05/06 00:39:57;;;;;;;30.40;16.93;;;10.10;98.90;;;;;;5072774;28;20078;-47
2022/05/06 00:42:23;;;;;;;23.57;15.43;;;10.00;99.10;;;;;;5083002;28;20043;-47
2022/05/06 00:44:49;;;;;;;24.00;16.75;;;10.10;99.00;;;;;;5091591;28;20145;-47
2022/05/06 00:47:18;;;;;;;24.83;16.70;;;10.00;99.30;;;;;;5084042;28;20071;-50
2022/05/06 00:49:45;;;;;;;23.15;15.65;;;10.00;99.70;;;;;;5072158;28;20047;-47
2022/05/06 00:52:10;;;;;;;25.80;16.13;;;9.90;99.60;;;;;;5079509;28;20114;-46
2022/05/06 00:54:38;;;;;;;23.20;16.03;;;10.00;99.90;;;;;;5071566;28;20454;-47
2022/05/06 00:57:06;;;;;;;17.67;13.73;;;10.00;99.40;;;;;;5072545;28;20115;-48
2022/05/06 00:59:31;;;;;;;23.17;14.15;;;9.90;98.80;;;;;;5080992;28;20044;-47
2022/05/06 01:01:59;;;;;;;20.67;14.70;;;9.90;98.60;;;;;;5071567;28;20047;-47
2022/05/06 01:04:25;;;;;;;20.25;14.68;;;9.70;98.30;;;;;;5070979;28;20394;-46
2022/05/06 01:06:51;;;;;;;27.47;15.53;;;9.60;98.90;;;;;;5071230;28;20501;-47
2022/05/06 01:09:17;;;;;;;22.90;15.15;;;9.60;98.90;;;;;;5075558;28;20414;-47
2022/05/06 01:11:44;;;;;;;23.60;14.90;;;9.50;99.10;;;;;;5071662;28;20120;-45
2022/05/06 01:14:11;;;;;;;19.27;13.48;;;9.50;99.30;;;;;;5071707;28;20044;-45
2022/05/06 01:16:37;;;;;;;19.63;14.52;;;9.40;98.90;;;;;;5070906;28;20048;-45
2022/05/06 01:19:04;;;;;;;20.98;15.43;;;9.40;99.00;;;;;;5072254;28;20036;-45
2022/05/06 01:21:38;;;;;;;21.48;14.27;;;9.40;99.20;;;;;;5071041;28;20115;-45
2022/05/06 01:24:04;;;;;;;24.58;16.33;;;9.40;99.30;;;;;;5080520;28;20048;-45
2022/05/06 01:26:54;;;;;;;19.50;13.73;;;9.40;99.80;;;;;;5076358;28;20032;-45
2022/05/06 01:29:22;;;;;;;20.50;13.80;;;9.40;99.90;;;;;;5075797;28;20049;-48
2022/05/06 01:31:50;;;;;;;15.27;11.10;;;9.40;99.90;;;;;;5079281;28;20085;-45
2022/05/06 01:34:17;;;;;;;14.68;12.25;;;9.30;99.60;;;;;;5075795;28;20068;-45
2022/05/06 01:36:46;;;;;;;18.05;12.35;;;9.30;99.10;;;;;;5077575;28;20560;-45
2022/05/06 01:39:15;;;;;;;18.52;13.70;;;9.20;98.90;;;;;;5089881;28;20051;-45
2022/05/06 01:41:45;;;;;;;22.27;12.77;;;9.10;99.20;;;;;;5082184;28;20037;-45
2022/05/06 01:44:14;;;;;;;13.30;10.45;;;9.10;99.60;;;;;;5071006;28;20059;-45
2022/05/06 01:46:40;;;;;;;11.27;8.88;;;9.00;99.80;;;;;;5069892;28;20045;-45
2022/05/06 01:49:06;;;;;;;16.55;10.98;;;9.00;99.70;;;;;;5073157;28;20119;-45
2022/05/06 01:51:33;;;;;;;16.20;11.43;;;9.00;99.60;;;;;;5084188;28;20043;-46
2022/05/06 01:53:59;;;;;;;11.70;10.23;;;9.00;99.90;;;;;;5070050;28;20048;-46
2022/05/06 01:56:25;;;;;;;14.50;10.27;;;9.00;99.90;;;;;;5069862;28;20044;-45
2022/05/06 01:58:51;;;;;;;14.83;11.47;;;9.00;99.90;;;;;;5070755;28;20025;-47
2022/05/06 02:01:17;;;;;;;17.67;10.73;;;9.00;99.90;;;;;;5073249;28;20403;-46
2022/05/06 02:06:28;;;;;;;11.80;8.40;;;8.80;99.40;;;;;;5070969;28;20048;-46
2022/05/06 02:08:54;;;;;;;10.75;8.15;;;8.80;99.40;;;;;;5069940;28;20040;-45
2022/05/06 02:11:20;;;;;;;14.50;9.50;;;8.70;99.70;;;;;;5073684;28;20047;-45
2022/05/06 02:13:46;;;;;;;13.60;8.63;;;8.70;99.70;;;;;;5080858;28;20131;-45
2022/05/06 02:16:12;;;;;;;15.98;9.35;;;8.70;99.90;;;;;;5090097;28;20036;-45
2022/05/06 02:18:38;;;;;;;9.13;5.20;;;8.70;99.90;;;;;;5080529;28;20040;-45
2022/05/06 02:21:03;;;;;;;10.40;6.82;;;8.60;99.90;;;;;;5071539;28;20028;-45
2022/05/06 02:23:29;;;;;;;9.32;7.05;;;8.70;99.90;;;;;;5070442;28;20119;-44
2022/05/06 02:25:55;;;;;;;9.57;6.30;;;8.70;99.90;;;;;;5074047;28;20028;-45
2022/05/06 02:28:21;;;;;;;8.33;6.53;;;8.70;99.90;;;;;;5087566;28;20098;-46
2022/05/06 02:33:31;;;;;;;9.32;7.63;;;8.60;99.90;;;;;;5089860;28;20448;-44
2022/05/06 02:35:57;;;;;;;11.00;8.48;;;8.60;99.90;;;;;;5088974;28;20063;-45
2022/05/06 02:38:25;;;;;;;13.18;9.68;;;8.60;99.90;;;;;;5069528;28;20071;-45
2022/05/06 02:40:50;;;;;;;11.65;8.82;;;8.60;99.90;;;;;;5075737;28;20032;-45
2022/05/06 02:43:17;;;;;;;12.27;9.77;;;8.60;99.90;;;;;;5069862;28;20040;-44
2022/05/06 02:45:43;;;;;;;12.43;9.20;;;8.60;99.90;;;;;;5069145;28;20116;-45
2022/05/06 02:48:09;;;;;;;11.73;9.23;;;8.60;99.90;;;;;;5069018;28;20132;-46
2022/05/06 02:50:34;;;;;;;9.57;7.10;;;8.60;99.90;;;;;;5069811;28;20119;-45
2022/05/06 02:53:01;;;;;;;9.65;6.95;;;8.60;99.90;;;;;;5069466;28;20039;-45
2022/05/06 02:55:27;;;;;;;7.88;6.75;;;8.50;99.90;;;;;;5069245;28;20401;-46
2022/05/06 02:57:53;;;;;;;9.15;7.47;;;8.50;99.90;;;;;;5069223;28;20025;-45
2022/05/06 03:00:19;;;;;;;9.70;6.95;;;8.50;99.90;;;;;;5069396;28;20041;-45
2022/05/06 03:02:44;;;;;;;8.85;6.95;;;8.40;99.90;;;;;;5084061;28;20044;-46
2022/05/06 03:05:10;;;;;;;11.45;8.57;;;8.40;99.90;;;;;;5070127;28;20047;-44
2022/05/06 03:07:36;;;;;;;8.70;7.47;;;8.40;99.90;;;;;;5079559;28;20101;-45
2022/05/06 03:10:03;;;;;;;11.27;8.00;;;8.30;99.90;;;;;;5068976;28;20501;-48
2022/05/06 03:12:30;;;;;;;5.93;4.93;;;8.40;99.90;;;;;;5071966;28;20535;-44
2022/05/06 03:14:57;;;;;;;7.43;4.80;;;8.30;99.90;;;;;;5067890;28;20040;-48
2022/05/06 03:17:23;;;;;;;9.25;7.00;;;8.20;99.90;;;;;;5075744;28;20831;-45
2022/05/06 03:19:48;;;;;;;9.80;6.67;;;8.20;99.90;;;;;;5069272;28;20040;-45
2022/05/06 03:22:17;;;;;;;5.73;5.20;;;8.10;99.90;;;;;;5073302;28;20032;-45
2022/05/06 03:24:44;;;;;;;8.10;5.80;;;8.00;99.90;;;;;;5079912;28;20037;-46
2022/05/06 03:27:59;;;;;;;7.97;6.63;;;7.90;99.90;;;;;;5069322;28;20045;-45
2022/05/06 03:29:56;;;;;;;7.05;5.68;;;7.90;99.90;;;;;;5060441;28;20048;-48
2022/05/06 03:32:22;;;;;;;7.27;6.07;;;7.80;99.90;;;;;;5070121;28;20091;-45
2022/05/06 03:34:48;;;;;;;13.02;6.85;;;7.90;99.90;;;;;;5071679;28;20381;-45
2022/05/06 03:37:14;;;;;;;;;;;7.90;99.90;;;;;;5070052;28;20122;-46
2022/05/06 03:39:39;;;;;;;10.63;6.53;;;7.90;99.90;;;;;;5068865;28;20393;-45
2022/05/06 03:42:05;;;;;;;9.13;6.93;;;7.90;99.90;;;;;;5073847;28;20032;-45
2022/05/06 03:44:31;;;;;;;9.50;7.55;;;7.80;99.90;;;;;;5075424;28;20090;-44
2022/05/06 03:46:56;;;;;;;13.10;8.90;;;7.80;99.90;;;;;;5070841;28;20452;-46
2022/05/06 03:49:22;;;;;;;9.37;7.00;;;7.80;99.90;;;;;;5072880;28;20040;-45
2022/05/06 03:51:47;;;;;;;9.27;7.73;;;7.80;99.90;;;;;;5072923;28;20053;-44
2022/05/06 03:54:13;;;;;;;13.80;7.80;;;7.70;99.90;;;;;;5078841;28;20044;-45
2022/05/06 03:56:39;;;;;;;10.83;7.23;;;7.70;99.90;;;;;;5076402;28;20033;-46
2022/05/06 03:59:04;;;;;;;9.77;7.40;;;7.70;99.90;;;;;;5077922;28;20032;-46
2022/05/06 04:01:30;;;;;;;8.82;6.68;;;7.70;99.90;;;;;;5072225;28;20036;-45
2022/05/06 04:03:56;;;;;;;5.03;3.88;;;7.60;99.90;;;;;;5073799;28;20041;-45
2022/05/06 04:06:21;;;;;;;9.90;7.10;;;7.60;99.90;;;;;;5079284;28;20040;-45
2022/05/06 04:08:47;;;;;;;10.97;8.70;;;7.60;99.90;;;;;;5072297;28;20044;-45
2022/05/06 04:11:13;;;;;;;17.40;10.87;;;7.60;99.90;;;;;;5072106;28;20075;-48
2022/05/06 04:13:39;;;;;;;12.18;7.78;;;7.50;99.90;;;;;;5072232;28;20928;-44
2022/05/06 04:16:07;;;;;;;14.10;8.85;;;7.50;99.90;;;;;;5072531;28;20119;-45
2022/05/06 04:18:33;;;;;;;10.38;7.28;;;7.40;99.90;;;;;;5072861;28;20576;-45
2022/05/06 04:23:43;;;;;;;13.13;7.95;;;7.30;99.90;;;;;;5087771;28;20413;-46
2022/05/06 04:26:13;;;;;;;19.90;11.43;;;7.30;99.90;;;;;;5079326;28;20037;-45
2022/05/06 04:28:39;;;;;;;13.68;9.13;;;7.30;99.90;;;;;;5081547;28;20032;-45
2022/05/06 04:31:05;;;;;;;;;;;7.30;99.90;;;;;;5093563;28;20485;-44
2022/05/06 04:33:31;;;;;;;10.95;6.35;;;7.40;99.90;;;;;;5076687;28;19969;-45
2022/05/06 04:35:59;;;;;;;11.82;6.45;;;7.40;99.90;;;;;;5079620;28;20036;-45
2022/05/06 04:38:25;;;;;;;11.27;7.50;;;7.40;99.90;;;;;;5092114;28;20048;-44
2022/05/06 04:40:54;;;;;;;9.55;6.70;;;7.40;99.90;;;;;;5085517;28;20203;-45
2022/05/06 04:43:20;;;;;;;6.97;5.50;;;7.40;99.90;;;;;;5071820;28;20574;-45
2022/05/06 04:45:47;;;;;;;8.18;5.63;;;7.50;99.90;;;;;;5087958;28;20045;-46
2022/05/06 04:48:12;;;;;;;9.43;6.82;;;7.50;99.90;;;;;;5072277;28;20044;-47
2022/05/06 04:50:39;;;;;;;10.73;6.88;;;7.50;99.90;;;;;;5070793;28;20487;-46
2022/05/06 04:53:09;;;;;;;8.55;5.65;;;7.60;99.90;;;;;;5071209;28;20052;-45
2022/05/06 04:55:35;;;;;;;6.60;5.13;;;7.60;99.90;;;;;;5071574;28;20075;-46
2022/05/06 04:58:02;;;;;;;9.05;5.88;;;7.70;99.90;;;;;;5075266;28;20081;-46
2022/05/06 05:00:28;;;;;;;8.07;6.68;;;7.80;99.90;;;;;;5072049;28;20111;-45
2022/05/06 05:02:54;;;;;;;7.60;6.75;;;7.90;99.90;;;;;;5071447;28;20108;-44
2022/05/06 05:05:19;;;;;;;6.63;6.03;;;7.90;99.90;;;;;;5070620;28;20489;-45
2022/05/06 05:07:45;;;;;;;10.03;6.17;;;8.00;99.90;;;;;;5073787;28;20128;-45
2022/05/06 05:10:11;;;;;;;6.57;5.90;;;8.00;99.90;;;;;;5071390;28;20123;-47
2022/05/06 05:12:36;;;;;;;11.70;8.47;;;8.00;99.90;;;;;;5071645;28;20044;-45
2022/05/06 05:15:03;;;;;;;11.18;9.90;;;8.00;99.90;;;;;;5069702;28;20040;-46
2022/05/06 05:17:29;;;;;;;16.08;9.88;;;8.10;99.90;;;;;;5080621;28;20037;-44
2022/05/06 05:19:54;;;;;;;16.77;11.00;;;8.20;99.90;;;;;;5071062;28;20175;-44
2022/05/06 05:22:20;;;;;;;15.90;12.50;;;8.20;99.90;;;;;;5081630;28;20036;-45
2022/05/06 05:24:46;;;;;;;17.27;11.57;;;8.30;99.90;;;;;;5070095;28;20040;-45
2022/05/06 05:27:13;;;;;;;18.88;11.65;;;8.40;99.90;;;;;;5072207;28;20070;-45
2022/05/06 05:29:39;;;;;;;19.02;12.40;;;8.50;99.90;;;;;;5073954;28;20074;-45
2022/05/06 05:32:05;;;;;;;20.67;14.40;;;8.60;99.90;;;;;;5077566;28;20137;-45
2022/05/06 05:34:31;;;;;;;26.38;16.30;;;8.80;99.90;;;;;;5068093;28;20036;-45
2022/05/06 05:36:56;;;;;;;23.20;15.00;;;8.90;99.90;;;;;;5074535;28;20084;-44
2022/05/06 05:39:22;;;;;;;23.30;16.47;;;9.00;99.90;;;;;;5091414;28;20386;-44
2022/05/06 05:41:47;;;;;;;20.63;14.83;;;9.10;99.90;;;;;;5086839;28;20043;-45
2022/05/06 05:49:41;;;;;;;21.30;14.75;;;9.20;99.90;;;;;;5068105;28;20340;-45
2022/05/06 05:52:07;;;;;;;25.03;16.83;;;9.30;99.90;;;;;;5069487;28;20426;-45
2022/05/06 05:54:32;;;;;;;25.80;17.10;;;9.40;99.90;;;;;;5069496;28;20051;-48
2022/05/06 05:56:58;;;;;;;30.02;17.98;;;9.50;99.90;;;;;;5088166;28;20036;-46
2022/05/06 05:59:24;;;;;;;26.40;18.38;;;9.60;99.90;;;;;;5072170;28;20477;-47
2022/05/06 06:01:49;;;;;;;28.23;20.08;;;9.70;99.90;;;;;;5070506;28;20043;-45
2022/05/06 06:04:18;;;;;;;28.73;18.53;;;9.80;99.90;;;;;;5086502;28;20313;-45
2022/05/06 06:06:43;;;;;;;30.95;18.88;;;10.00;99.90;;;;;;5087896;28;20043;-45
2022/05/06 06:09:09;;;;;;;35.83;19.87;;;10.20;99.90;;;;;;5056978;28;20374;-46
2022/05/06 06:11:35;;;;;;;30.58;20.52;;;10.40;99.90;;;;;;5054277;28;20043;-45
2022/05/06 06:14:02;;;;;;;37.10;22.30;;;10.60;99.90;;;;;;5057963;28;20056;-47
2022/05/06 06:16:28;;;;;;;37.00;20.95;;;10.70;99.90;;;;;;5058339;28;20037;-46
2022/05/06 06:18:55;;;;;;;34.90;22.92;;;10.90;99.90;;;;;;5058578;28;20044;-45
2022/05/06 06:21:21;;;;;;;32.80;22.73;;;11.10;99.90;;;;;;5052113;28;20048;-48
2022/05/06 06:23:47;;;;;;;30.77;20.95;;;11.20;99.90;;;;;;5063424;28;20519;-47
2022/05/06 06:26:12;;;;;;;44.10;26.63;;;11.40;99.90;;;;;;5045833;28;20044;-46
2022/05/06 06:28:38;;;;;;;42.00;26.00;;;11.50;99.90;;;;;;5066506;28;20490;-45
2022/05/06 06:31:03;;;;;;;42.23;27.37;;;11.70;99.90;;;;;;5070270;28;20079;-46
2022/05/06 06:33:29;;;;;;;40.80;27.75;;;11.80;99.90;;;;;;5071158;28;20058;-45
2022/05/06 06:35:54;;;;;;;49.03;30.17;;;12.00;99.90;;;;;;5069519;28;20500;-45
2022/05/06 06:38:20;;;;;;;48.88;28.73;;;12.10;99.90;;;;;;5070871;28;20032;-45
2022/05/06 06:40:45;;;;;;;50.00;28.23;;;12.30;99.90;;;;;;5070202;28;20521;-46
2022/05/06 06:43:11;;;;;;;44.67;29.87;;;12.40;99.90;;;;;;5073165;28;20036;-45
2022/05/06 06:45:37;;;;;;;49.35;29.98;;;12.50;99.90;;;;;;5076250;28;20497;-46
2022/05/06 06:48:04;;;;;;;49.05;28.95;;;12.70;99.90;;;;;;5081539;28;20040;-45
2022/05/06 06:50:29;;;;;;;48.20;29.92;;;12.80;99.90;;;;;;5069442;28;20521;-45
2022/05/06 06:52:55;;;;;;;50.47;30.05;;;12.90;99.90;;;;;;5070082;28;20044;-45
2022/05/06 06:55:21;;;;;;;46.95;30.77;;;13.00;99.90;;;;;;5068690;28;20182;-45
2022/05/06 06:57:46;;;;;;;46.05;30.48;;;13.10;99.90;;;;;;5069163;28;20119;-46
2022/05/06 07:00:13;;;;;;;49.22;29.65;;;13.20;99.90;;;;;;5073413;28;20420;-45
2022/05/06 07:02:45;;;;;;;50.83;30.58;;;13.20;99.90;;;;;;5069738;28;20085;-46
2022/05/06 07:05:10;;;;;;;50.75;30.58;;;13.30;99.90;;;;;;5069215;28;20036;-46
2022/05/06 07:13:05;;;;;;;45.42;29.63;;;13.60;99.90;;;;;;5079552;28;20071;-46
2022/05/06 07:15:31;;;;;;;54.95;27.75;;;13.80;99.90;;;;;;5076316;28;20072;-46
2022/05/06 07:17:58;;;;;;;40.58;24.70;;;13.90;99.90;;;;;;5087995;28;20080;-47
2022/05/06 07:20:23;;;;;;;46.53;25.15;;;13.90;99.90;;;;;;5088259;28;20398;-45
2022/05/06 07:22:49;;;;;;;39.45;26.00;;;13.90;99.90;;;;;;5092415;28;20047;-45
2022/05/06 07:25:15;;;;;;;36.80;24.48;;;14.00;99.90;;;;;;5080370;28;20486;-46
2022/05/06 07:27:40;;;;;;;34.30;24.23;;;14.10;99.90;;;;;;5073694;28;20036;-47
2022/05/06 07:30:08;;;;;;;35.33;23.65;;;14.20;99.90;;;;;;5090522;28;20114;-46
2022/05/06 07:32:33;;;;;;;32.45;21.38;;;14.30;99.90;;;;;;5080491;28;20032;-45
2022/05/06 07:34:59;;;;;;;32.67;20.98;;;14.30;99.90;;;;;;5079848;28;20035;-48
2022/05/06 07:37:24;;;;;;;30.13;21.30;;;14.30;99.90;;;;;;5070629;28;20147;-50
2022/05/06 07:39:50;;;;;;;28.05;18.77;;;14.30;99.90;;;;;;5056728;28;20352;-46
2022/05/06 07:42:16;;;;;;;25.20;18.55;;;14.40;99.90;;;;;;5058036;28;20400;-46
2022/05/06 07:44:42;;;;;;;29.13;19.02;;;14.50;99.90;;;;;;5054395;28;20101;-48
2022/05/06 07:47:07;;;;;;;35.97;19.73;;;14.50;99.90;;;;;;5059447;28;20029;-48
2022/05/06 07:49:33;;;;;;;30.73;19.98;;;14.60;99.90;;;;;;5056063;28;20045;-45
2022/05/06 07:51:58;;;;;;;34.55;20.90;;;14.60;99.90;;;;;;5058271;28;20032;-47
2022/05/06 07:54:24;;;;;;;28.40;19.73;;;14.70;99.90;;;;;;5063002;28;20045;-46
2022/05/06 07:56:50;;;;;;;34.85;20.27;;;14.80;99.90;;;;;;5059942;28;20029;-47
2022/05/06 07:59:15;;;;;;;34.75;21.20;;;14.90;99.90;;;;;;5062568;28;20028;-45
2022/05/06 08:04:35;;;;;;;32.83;21.83;;;15.00;99.90;;;;;;5060149;28;20439;-46
2022/05/06 08:07:02;;;;;;;28.00;21.35;;;15.10;99.90;;;;;;5057964;28;20045;-50
2022/05/06 08:09:27;;;;;;;30.80;20.95;;;15.10;99.90;;;;;;5060606;28;20037;-46
2022/05/06 08:11:53;;;;;;;32.20;22.33;;;15.00;99.90;;;;;;5065910;28;20044;-46
2022/05/06 08:14:19;;;;;;;33.00;21.38;;;15.00;99.90;;;;;;5062093;28;20072;-47
2022/05/06 08:16:45;;;;;;;33.38;22.27;;;15.00;99.90;;;;;;5063107;28;20037;-47
2022/05/06 08:19:13;;;;;;;29.10;22.52;;;15.10;99.90;;;;;;5060860;28;20414;-46
2022/05/06 08:21:39;;;;;;;26.60;21.50;;;15.00;99.90;;;;;;5091518;28;20094;-47
2022/05/06 08:24:05;;;;;;;;;;;15.00;99.90;;;;;;5057291;28;20043;-48
2022/05/06 08:26:31;;;;;;;29.50;20.52;;;15.10;99.90;;;;;;5065972;28;20007;-46
2022/05/06 08:28:56;;;;;;;32.70;21.10;;;15.20;99.90;;;;;;5060041;28;20107;-48
2022/05/06 08:31:22;;;;;;;31.52;21.17;;;15.30;99.90;;;;;;5063219;28;20040;-46
2022/05/06 08:33:47;;;;;;;29.77;21.60;;;15.40;99.90;;;;;;5054568;28;20029;-46
2022/05/06 08:36:14;;;;;;;33.90;23.00;;;15.50;99.90;;;;;;5062778;28;20112;-47
2022/05/06 08:38:39;;;;;;;34.45;24.20;;;15.50;99.90;;;;;;5060960;28;20062;-47
2022/05/06 08:41:05;;;;;;;33.97;22.02;;;15.50;99.90;;;;;;5066683;28;20109;-45
2022/05/06 08:43:32;;;;;;;31.60;20.63;;;15.60;99.90;;;;;;5061190;28;20343;-45
2022/05/06 08:51:33;;;;;;;30.55;19.77;;;15.80;99.90;;;;;;5061781;28;20477;-48
2022/05/06 08:53:59;;;;;;;28.63;18.63;;;15.90;99.90;;;;;;5062619;28;20045;-47
2022/05/06 08:56:24;;;;;;;27.85;19.02;;;16.00;99.90;;;;;;5065838;28;20040;-46
2022/05/06 08:58:50;;;;;;;28.15;19.10;;;16.10;99.90;;;;;;5054310;28;20183;-45
2022/05/06 09:01:21;;;;;;;27.48;19.42;;;16.30;99.90;;;;;;5056445;28;20110;-47
2022/05/06 09:03:48;;;;;;;30.88;21.10;;;16.30;99.90;;;;;;5058180;28;20047;-45
2022/05/06 09:06:28;;;;;;;30.98;21.00;;;16.40;99.90;;;;;;5055567;28;20039;-46
2022/05/06 09:08:58;;;;;;;35.90;20.63;;;16.50;99.90;;;;;;5057332;28;20493;-45
2022/05/06 09:14:17;;;;;;;29.30;18.73;;;16.50;99.90;;;;;;5063332;28;20441;-46
2022/05/06 09:16:44;;;;;;;29.80;19.15;;;16.60;99.90;;;;;;5061120;28;20039;-46
2022/05/06 09:19:20;;;;;;;26.63;18.40;;;16.60;99.90;;;;;;5056655;28;20048;-45
2022/05/06 09:22:11;;;;;;;24.17;17.63;;;16.70;99.90;;;;;;5062226;28;20046;-45
2022/05/06 09:24:40;;;;;;;27.17;17.52;;;16.80;99.90;;;;;;5053408;28;20067;-47
2022/05/06 09:27:21;;;;;;;23.85;17.05;;;16.80;99.90;;;;;;5059148;28;20036;-45
2022/05/06 09:29:54;;;;;;;23.98;15.80;;;16.90;99.90;;;;;;5056108;28;20037;-45
2022/05/06 09:32:24;;;;;;;27.88;17.50;;;17.00;99.90;;;;;;5057664;28;20075;-46
2022/05/06 09:34:53;;;;;;;34.00;16.75;;;17.00;99.90;;;;;;5055513;28;20553;-45
2022/05/06 09:37:33;;;;;;;24.20;15.85;;;17.20;99.90;;;;;;5058040;28;20394;-47
2022/05/06 09:40:07;;;;;;;23.55;15.25;;;17.30;99.90;;;;;;5056590;28;20067;-48
2022/05/06 09:42:34;;;;;;;24.13;15.85;;;17.40;99.90;;;;;;5059088;28;20569;-45
2022/05/06 09:45:03;;;;;;;21.70;14.95;;;17.40;99.90;;;;;;5057071;28;20040;-45
2022/05/06 09:47:33;;;;;;;23.95;15.43;;;17.40;99.90;;;;;;5058041;28;20044;-46
2022/05/06 09:49:59;;;;;;;22.02;14.57;;;17.60;99.90;;;;;;5058060;28;20063;-46
2022/05/06 09:52:25;;;;;;;;;;;17.70;99.90;;;;;;5061453;28;20048;-46
2022/05/06 09:54:52;;;;;;;23.70;15.15;;;17.80;99.90;;;;;;5057246;28;19925;-46
2022/05/06 09:57:20;;;;;;;21.98;14.55;;;17.90;99.60;;;;;;5054760;28;20047;-46
2022/05/06 09:59:47;;;;;;;22.35;15.05;;;18.00;99.50;;;;;;5056741;28;20543;-46
2022/05/06 10:02:13;;;;;;;23.95;15.63;;;18.10;99.00;;;;;;5057857;28;20032;-48
2022/05/06 10:04:39;;;;;;;22.35;14.88;;;18.20;99.30;;;;;;5054948;28;20094;-46
2022/05/06 10:07:12;;;;;;;;;;;18.30;99.30;;;;;;5061772;28;20536;-48
2022/05/06 10:09:50;;;;;;;27.23;13.80;;;18.30;98.70;;;;;;5057690;28;19916;-47
2022/05/06 10:12:18;;;;;;;19.92;12.98;;;18.40;98.50;;;;;;5056471;28;20037;-45
2022/05/06 10:14:44;;;;;;;17.83;10.95;;;18.50;98.80;;;;;;5064066;28;20071;-46
2022/05/06 10:17:10;;;;;;;17.42;11.98;;;18.60;98.10;;;;;;5056253;28;20113;-47
2022/05/06 10:19:38;;;;;;;18.52;11.95;;;18.70;97.90;;;;;;5058114;28;20037;-46
2022/05/06 10:22:04;;;;;;;18.80;12.95;;;18.70;97.60;;;;;;5058360;28;20445;-48
2022/05/06 10:24:48;;;;;;;15.15;10.38;;;18.80;97.20;;;;;;5060267;28;20052;-47
2022/05/06 10:32:25;;;;;;;14.80;9.93;;;18.80;97.10;;;;;;5059469;28;20033;-45
2022/05/06 10:33:18;;;;;;;14.98;7.63;;;18.80;97.10;;;;;;5069002;28;20044;-46
2022/05/06 10:35:45;;;;;;;14.20;9.38;;;18.90;96.40;;;;;;5070524;28;20631;-46
2022/05/06 10:38:21;;;;;;;15.43;10.02;;;19.00;97.20;;;;;;5071127;28;20090;-48
2022/05/06 10:40:54;;;;;;;14.93;10.55;;;19.10;96.10;;;;;;5086295;28;20032;-46
2022/05/06 10:43:41;;;;;;;16.23;9.75;;;19.20;96.30;;;;;;5088743;28;20036;-47
2022/05/06 10:46:07;;;;;;;10.88;8.45;;;19.30;96.50;;;;;;5088566;28;20522;-46
2022/05/06 10:48:33;;;;;;;11.95;7.80;;;19.30;96.40;;;;;;5070008;28;20068;-47
2022/05/06 10:51:24;;;;;;;12.93;8.63;;;19.40;95.70;;;;;;5071037;28;20067;-47
2022/05/06 10:53:50;;;;;;;14.77;8.10;;;19.60;95.60;;;;;;5069056;28;20067;-45
2022/05/06 10:56:16;;;;;;;10.68;8.05;;;19.60;95.30;;;;;;5068683;28;20036;-46
2022/05/06 10:58:42;;;;;;;10.15;8.25;;;19.60;94.90;;;;;;5069554;28;20051;-46
2022/05/06 11:01:15;;;;;;;5.88;5.38;;;19.60;95.20;;;;;;5068772;28;20448;-45
2022/05/06 11:03:54;;;;;;;6.63;5.82;;;19.70;95.10;;;;;;5070433;28;20036;-45
2022/05/06 11:06:23;;;;;;;4.10;3.67;;;19.70;94.40;;;;;;5072653;28;20063;-45
2022/05/06 11:08:50;;;;;;;4.32;3.85;;;19.80;93.80;;;;;;5069415;28;20045;-45
2022/05/06 11:11:19;;;;;;;;;;;19.80;93.20;;;;;;5090677;28;20032;-44
2022/05/06 11:13:47;;;;;;;3.58;3.28;;;19.80;92.80;;;;;;5067637;28;19982;-44
2022/05/06 11:16:14;;;;;;;3.40;3.20;;;19.90;93.60;;;;;;5067358;28;20551;-46
2022/05/06 11:18:47;;;;;;;4.72;4.22;;;19.90;92.90;;;;;;5069373;28;20083;-46
2022/05/06 11:21:31;;;;;;;4.72;3.33;;;19.90;91.50;;;;;;5069740;28;20569;-45
2022/05/06 11:23:57;;;;;;;4.60;2.67;;;19.80;91.50;;;;;;5064555;28;20063;-44
2022/05/06 11:26:24;;;;;;;3.25;2.35;;;19.70;91.50;;;;;;5067345;28;20037;-45
2022/05/06 11:29:03;;;;;;;3.92;2.33;;;19.80;91.80;;;;;;5069160;28;20044;-45
2022/05/06 11:31:29;;;;;;;3.60;2.50;;;19.80;90.60;;;;;;5069920;28;20036;-44
2022/05/06 11:34:01;;;;;;;4.40;2.72;;;19.90;91.60;;;;;;5068601;28;20508;-44
2022/05/06 11:36:26;;;;;;;3.55;2.30;;;20.00;92.00;;;;;;5069227;28;20044;-45
2022/05/06 11:38:52;;;;;;;4.72;2.63;;;20.00;90.70;;;;;;5070910;28;20503;-44
2022/05/06 11:41:17;;;;;;;;;;;20.10;91.00;;;;;;5069426;28;20032;-45
2022/05/06 11:43:45;;;;;;;4.07;3.63;;;20.10;91.40;;;;;;5071632;28;19917;-45
2022/05/06 11:49:06;;;;;;;2.25;1.58;;;20.40;90.50;;;;;;5068088;28;20486;-45
2022/05/06 11:51:38;;;;;;;3.63;1.80;;;20.50;90.50;;;;;;5063867;28;20047;-44
2022/05/06 11:54:05;;;;;;;5.57;1.88;;;20.40;88.80;;;;;;5070919;28;20088;-45
2022/05/06 11:56:31;;;;;;;2.50;1.20;;;20.50;88.30;;;;;;5088796;28;20043;-47
2022/05/06 11:58:58;;;;;;;9.45;2.13;;;20.50;88.90;;;;;;5075584;28;20033;-45
2022/05/06 12:01:28;;;;;;;4.43;3.10;;;20.60;88.70;;;;;;5085136;28;20064;-45
2022/05/06 12:03:59;;;;;;;1.10;1.00;;;20.60;89.40;;;;;;5068859;28;20032;-44
2022/05/06 12:06:27;;;;;;;3.40;1.33;;;20.70;87.00;;;;;;5068090;28;20068;-44
2022/05/06 12:09:10;;;;;;;2.15;1.77;;;20.90;86.90;;;;;;5072816;28;20097;-45
2022/05/06 12:11:36;;;;;;;2.00;1.83;;;20.90;83.30;;;;;;5072870;28;20044;-44
2022/05/06 12:14:19;;;;;;;2.88;1.98;;;21.00;85.40;;;;;;5071993;28;20033;-46
2022/05/06 12:17:02;;;;;;;2.13;1.92;;;21.00;84.60;;;;;;5071786;28;20048;-44
2022/05/06 12:19:40;;;;;;;2.55;2.20;;;21.00;84.70;;;;;;5073768;28;20028;-47
2022/05/06 12:22:26;;;;;;;3.25;2.50;;;21.10;84.10;;;;;;5052819;28;20049;-46
2022/05/06 12:24:58;;;;;;;3.83;2.97;;;21.00;81.80;;;;;;5070831;28;20063;-46
2022/05/06 12:27:28;;;;;;;3.42;1.92;;;21.00;83.60;;;;;;5082978;28;20101;-44
2022/05/06 12:29:55;;;;;;;3.83;3.13;;;21.00;82.20;;;;;;5093125;28;20051;-47
2022/05/06 12:32:21;;;;;;;3.03;2.72;;;21.00;83.20;;;;;;5075897;28;20044;-45
2022/05/06 12:35:03;;;;;;;1.42;1.10;;;21.00;83.60;;;;;;5071229;28;20076;-44
2022/05/06 12:37:28;;;;;;;3.97;1.90;;;21.10;83.40;;;;;;5091937;28;20044;-48
2022/05/06 12:39:58;;;;;;;;;;;21.20;82.70;;;;;;5073239;28;20041;-46
2022/05/06 12:42:23;;;;;;;2.78;0.60;;;21.20;78.70;;;;;;5072614;28;19916;-45
2022/05/06 12:44:49;;;;;;;;;;;21.20;80.50;;;;;;5070834;28;20424;-47
2022/05/06 12:50:00;;;;;;;3.72;3.35;;;21.50;79.70;;;;;;5073738;28;20036;-45
2022/05/06 12:52:26;;;;;;;;;;;21.40;79.90;;;;;;5093110;28;20040;-45
2022/05/06 12:54:51;;;;;;;4.13;2.92;;;21.30;77.10;;;;;;5089186;28;20019;-48
2022/05/06 12:57:17;;;;;;;;;;;21.40;78.70;;;;;;5072427;28;20048;-48
2022/05/06 12:59:43;;;;;;;3.72;2.22;;;21.40;76.20;;;;;;5071622;28;20507;-47
2022/05/06 13:02:09;;;;;;;;;;;21.50;78.20;;;;;;5071873;28;20067;-45
2022/05/06 13:04:36;;;;;;;5.10;1.65;;;21.60;74.70;;;;;;5070956;28;19970;-49
2022/05/06 13:07:02;;;;;;;1.65;1.13;;;21.40;73.40;;;;;;5072688;28;20041;-44
2022/05/06 13:09:27;;;;;;;;;;;21.40;74.50;;;;;;5071429;28;20051;-50
2022/05/06 13:11:53;;;;;;;5.22;1.10;;;21.50;72.10;;;;;;5072784;28;19946;-48
2022/05/06 13:14:21;;;;;;;;;;;21.40;72.70;;;;;;5071675;28;20045;-45
2022/05/06 13:16:47;;;;;;;1.95;0.70;;;21.40;72.40;;;;;;5074015;28;20396;-47
2022/05/06 13:19:13;;;;;;;;;;;21.30;72.30;;;;;;5070990;28;20036;-45
2022/05/06 13:21:38;;;;;;;2.80;1.60;;;21.30;69.30;;;;;;5072582;28;20051;-45
2022/05/06 13:24:04;;;;;;;;;;;21.30;72.60;;;;;;5070721;28;20182;-45